sensor_id;sensor_type;location;lat;lon;timestamp;P1;durP1;ratioP1;P2;durP2;ratioP2
7823;SDS011;3957;48.61947800;9.05303100;2023-09-07T00:00:59;2.90;;;2.20;;
7823;SDS011;3957;48.61947800;9.05303100;2023-09-07T00:02:02;2.80;;;2.00;;
7823;SDS011;3957;48.61947800;9.05303100;2023-09-07T00:03:05;2.92;;;2.30;;
7823;SDS011;3957;48.61947800;9.05303100;2023-09-07T00:04:07;2.53;;;2.30;;
7823;SDS011;3957;48.61947800;9.05303100;2023-09-07T00:05:09;2.40;;;2.00;;
7823;SDS011;3957;48.61947800;9.05303100;2023-09-07T00:06:11;2.50;;;2.30;;
7823;SDS011;3957;48.61947800;9.05303100;2023-09-07T00:07:12;3.57;;;2.07;;
7823;SDS011;3957;48.61947800;9.05303100;2023-09-07T00:08:14;3.42;;;2.13;;
7823;SDS011;3957;48.61947800;9.05303100;2023-09-07T00:09:16;2.60;;;2.20;;
7823;SDS011;3957;48.61947800;9.05303100;2023-09-07T00:10:19;2.40;;;2.20;;
7823;SDS011;3957;48.61947800;9.05303100;2023-09-07T00:11:21;2.65;;;2.35;;
7823;SDS011;3957;48.61947800;9.05303100;2023-09-07T00:12:22;2.88;;;2.20;;
7823;SDS011;3957;48.61947800;9.05303100;2023-09-07T00:13:24;2.40;;;2.20;;
7823;SDS011;3957;48.61947800;9.05303100;2023-09-07T00:14:25;3.63;;;2.27;;
7823;SDS011;3957;48.61947800;9.05303100;2023-09-07T00:15:27;2.85;;;2.33;;
7823;SDS011;3957;48.61947800;9.05303100;2023-09-07T00:16:32;2.95;;;2.10;;
7823;SDS011;3957;48.61947800;9.05303100;2023-09-07T00:17:39;5.10;;;2.30;;
7823;SDS011;3957;48.61947800;9.05303100;2023-09-07T00:18:41;2.78;;;2.22;;
7823;SDS011;3957;48.61947800;9.05303100;2023-09-07T00:19:42;2.58;;;2.20;;
7823;SDS011;3957;48.61947800;9.05303100;2023-09-07T00:20:44;3.75;;;2.80;;
7823;SDS011;3957;48.61947800;9.05303100;2023-09-07T00:21:45;2.65;;;2.45;;
7823;SDS011;3957;48.61947800;9.05303100;2023-09-07T00:22:47;2.70;;;2.22;;
7823;SDS011;3957;48.61947800;9.05303100;2023-09-07T00:23:48;2.42;;;2.20;;
7823;SDS011;3957;48.61947800;9.05303100;2023-09-07T00:24:50;3.13;;;2.40;;
7823;SDS011;3957;48.61947800;9.05303100;2023-09-07T00:25:51;4.82;;;2.75;;
7823;SDS011;3957;48.61947800;9.05303100;2023-09-07T00:26:53;3.20;;;2.40;;
7823;SDS011;3957;48.61947800;9.05303100;2023-09-07T00:27:55;3.25;;;2.60;;
7823;SDS011;3957;48.61947800;9.05303100;2023-09-07T00:28:57;3.45;;;2.53;;
7823;SDS011;3957;48.61947800;9.05303100;2023-09-07T00:29:58;3.00;;;2.33;;
7823;SDS011;3957;48.61947800;9.05303100;2023-09-07T00:31:00;2.70;;;2.47;;
7823;SDS011;3957;48.61947800;9.05303100;2023-09-07T00:32:01;2.83;;;2.27;;
7823;SDS011;3957;48.61947800;9.05303100;2023-09-07T00:33:03;3.13;;;2.50;;
7823;SDS011;3957;48.61947800;9.05303100;2023-09-07T00:34:05;3.15;;;2.60;;
7823;SDS011;3957;48.61947800;9.05303100;2023-09-07T00:38:06;3.30;;;2.63;;
7823;SDS011;3957;48.61947800;9.05303100;2023-09-07T00:39:07;3.47;;;2.90;;
7823;SDS011;3957;48.61947800;9.05303100;2023-09-07T00:40:10;3.13;;;2.47;;
7823;SDS011;3957;48.61947800;9.05303100;2023-09-07T00:41:12;2.67;;;2.47;;
7823;SDS011;3957;48.61947800;9.05303100;2023-09-07T00:42:14;3.15;;;2.45;;
7823;SDS011;3957;48.61947800;9.05303100;2023-09-07T00:43:17;2.90;;;2.60;;
7823;SDS011;3957;48.61947800;9.05303100;2023-09-07T00:44:18;3.10;;;2.38;;
7823;SDS011;3957;48.61947800;9.05303100;2023-09-07T00:45:20;3.35;;;2.45;;
7823;SDS011;3957;48.61947800;9.05303100;2023-09-07T00:46:22;3.53;;;2.67;;
7823;SDS011;3957;48.61947800;9.05303100;2023-09-07T00:47:24;4.55;;;2.50;;
7823;SDS011;3957;48.61947800;9.05303100;2023-09-07T00:48:26;3.50;;;2.60;;
7823;SDS011;3957;48.61947800;9.05303100;2023-09-07T00:49:27;3.63;;;2.60;;
7823;SDS011;3957;48.61947800;9.05303100;2023-09-07T00:50:29;3.17;;;2.33;;
7823;SDS011;3957;48.61947800;9.05303100;2023-09-07T00:51:31;3.33;;;2.60;;
7823;SDS011;3957;48.61947800;9.05303100;2023-09-07T00:52:34;3.08;;;2.20;;
7823;SDS011;3957;48.61947800;9.05303100;2023-09-07T00:53:37;2.97;;;2.60;;
7823;SDS011;3957;48.61947800;9.05303100;2023-09-07T00:54:39;4.47;;;2.42;;
7823;SDS011;3957;48.61947800;9.05303100;2023-09-07T00:55:42;2.97;;;2.53;;
7823;SDS011;3957;48.61947800;9.05303100;2023-09-07T00:56:44;4.15;;;2.67;;
7823;SDS011;3957;48.61947800;9.05303100;2023-09-07T00:57:46;5.20;;;2.30;;
7823;SDS011;3957;48.61947800;9.05303100;2023-09-07T00:58:47;2.83;;;2.50;;
7823;SDS011;3957;48.61947800;9.05303100;2023-09-07T00:59:49;2.95;;;2.30;;
7823;SDS011;3957;48.61947800;9.05303100;2023-09-07T01:00:51;2.85;;;2.55;;
7823;SDS011;3957;48.61947800;9.05303100;2023-09-07T01:01:53;3.33;;;2.40;;
7823;SDS011;3957;48.61947800;9.05303100;2023-09-07T01:02:55;2.97;;;2.60;;
7823;SDS011;3957;48.61947800;9.05303100;2023-09-07T01:03:58;2.70;;;2.50;;
7823;SDS011;3957;48.61947800;9.05303100;2023-09-07T01:05:03;2.17;;;1.97;;
7823;SDS011;3957;48.61947800;9.05303100;2023-09-07T01:06:09;2.70;;;2.50;;
7823;SDS011;3957;48.61947800;9.05303100;2023-09-07T01:07:20;3.05;;;2.55;;
7823;SDS011;3957;48.61947800;9.05303100;2023-09-07T01:09:01;3.00;;;2.22;;
7823;SDS011;3957;48.61947800;9.05303100;2023-09-07T01:09:59;4.70;;;2.50;;
7823;SDS011;3957;48.61947800;9.05303100;2023-09-07T01:11:13;2.40;;;2.20;;
7823;SDS011;3957;48.61947800;9.05303100;2023-09-07T01:12:19;3.22;;;2.60;;
7823;SDS011;3957;48.61947800;9.05303100;2023-09-07T01:13:21;3.30;;;2.53;;
7823;SDS011;3957;48.61947800;9.05303100;2023-09-07T01:14:22;2.70;;;2.45;;
7823;SDS011;3957;48.61947800;9.05303100;2023-09-07T01:15:24;3.05;;;2.53;;
7823;SDS011;3957;48.61947800;9.05303100;2023-09-07T01:16:26;2.90;;;2.45;;
7823;SDS011;3957;48.61947800;9.05303100;2023-09-07T01:17:28;2.83;;;2.42;;
7823;SDS011;3957;48.61947800;9.05303100;2023-09-07T01:18:30;4.45;;;2.35;;
7823;SDS011;3957;48.61947800;9.05303100;2023-09-07T01:19:33;4.40;;;2.60;;
7823;SDS011;3957;48.61947800;9.05303100;2023-09-07T01:20:35;3.03;;;2.33;;
7823;SDS011;3957;48.61947800;9.05303100;2023-09-07T01:21:38;2.42;;;2.13;;
7823;SDS011;3957;48.61947800;9.05303100;2023-09-07T01:22:40;4.37;;;2.40;;
7823;SDS011;3957;48.61947800;9.05303100;2023-09-07T01:23:43;2.47;;;2.20;;
7823;SDS011;3957;48.61947800;9.05303100;2023-09-07T01:24:46;3.20;;;2.50;;
7823;SDS011;3957;48.61947800;9.05303100;2023-09-07T01:25:48;2.60;;;2.40;;
7823;SDS011;3957;48.61947800;9.05303100;2023-09-07T01:26:51;4.18;;;2.28;;
7823;SDS011;3957;48.61947800;9.05303100;2023-09-07T01:27:53;2.70;;;2.45;;
7823;SDS011;3957;48.61947800;9.05303100;2023-09-07T01:28:54;4.82;;;2.70;;
7823;SDS011;3957;48.61947800;9.05303100;2023-09-07T01:29:57;2.63;;;2.38;;
7823;SDS011;3957;48.61947800;9.05303100;2023-09-07T01:30:59;2.55;;;2.20;;
7823;SDS011;3957;48.61947800;9.05303100;2023-09-07T01:32:00;2.90;;;2.20;;
7823;SDS011;3957;48.61947800;9.05303100;2023-09-07T01:33:02;3.03;;;2.55;;
7823;SDS011;3957;48.61947800;9.05303100;2023-09-07T01:34:05;2.78;;;2.28;;
7823;SDS011;3957;48.61947800;9.05303100;2023-09-07T01:35:07;2.72;;;2.40;;
7823;SDS011;3957;48.61947800;9.05303100;2023-09-07T01:36:12;3.03;;;2.30;;
7823;SDS011;3957;48.61947800;9.05303100;2023-09-07T01:37:14;3.13;;;2.53;;
7823;SDS011;3957;48.61947800;9.05303100;2023-09-07T01:38:15;2.42;;;2.22;;
7823;SDS011;3957;48.61947800;9.05303100;2023-09-07T01:39:17;2.72;;;2.50;;
7823;SDS011;3957;48.61947800;9.05303100;2023-09-07T01:40:19;2.88;;;2.45;;
7823;SDS011;3957;48.61947800;9.05303100;2023-09-07T01:41:20;2.92;;;2.58;;
7823;SDS011;3957;48.61947800;9.05303100;2023-09-07T01:42:23;2.50;;;2.28;;
7823;SDS011;3957;48.61947800;9.05303100;2023-09-07T01:43:24;2.45;;;2.25;;
7823;SDS011;3957;48.61947800;9.05303100;2023-09-07T01:44:26;4.72;;;2.65;;
7823;SDS011;3957;48.61947800;9.05303100;2023-09-07T01:45:28;2.60;;;2.40;;
7823;SDS011;3957;48.61947800;9.05303100;2023-09-07T01:46:29;2.85;;;2.25;;
7823;SDS011;3957;48.61947800;9.05303100;2023-09-07T01:47:31;3.03;;;2.63;;
7823;SDS011;3957;48.61947800;9.05303100;2023-09-07T01:48:33;2.80;;;2.45;;
7823;SDS011;3957;48.61947800;9.05303100;2023-09-07T01:49:36;3.30;;;2.38;;
7823;SDS011;3957;48.61947800;9.05303100;2023-09-07T01:50:37;2.85;;;2.33;;
7823;SDS011;3957;48.61947800;9.05303100;2023-09-07T01:51:39;3.63;;;2.55;;
7823;SDS011;3957;48.61947800;9.05303100;2023-09-07T01:52:41;2.88;;;2.58;;
7823;SDS011;3957;48.61947800;9.05303100;2023-09-07T01:53:43;3.60;;;2.60;;
7823;SDS011;3957;48.61947800;9.05303100;2023-09-07T01:54:44;2.60;;;2.40;;
7823;SDS011;3957;48.61947800;9.05303100;2023-09-07T01:55:46;5.85;;;2.40;;
7823;SDS011;3957;48.61947800;9.05303100;2023-09-07T01:56:49;3.13;;;2.75;;
7823;SDS011;3957;48.61947800;9.05303100;2023-09-07T01:57:51;4.80;;;2.78;;
7823;SDS011;3957;48.61947800;9.05303100;2023-09-07T01:58:52;3.03;;;2.47;;
7823;SDS011;3957;48.61947800;9.05303100;2023-09-07T01:59:54;2.58;;;2.30;;
7823;SDS011;3957;48.61947800;9.05303100;2023-09-07T02:00:58;3.20;;;2.28;;
7823;SDS011;3957;48.61947800;9.05303100;2023-09-07T02:02:00;2.63;;;2.42;;
7823;SDS011;3957;48.61947800;9.05303100;2023-09-07T02:03:02;2.97;;;2.42;;
7823;SDS011;3957;48.61947800;9.05303100;2023-09-07T02:04:04;3.10;;;2.42;;
7823;SDS011;3957;48.61947800;9.05303100;2023-09-07T02:05:06;3.30;;;2.90;;
7823;SDS011;3957;48.61947800;9.05303100;2023-09-07T02:06:08;2.90;;;2.60;;
7823;SDS011;3957;48.61947800;9.05303100;2023-09-07T02:07:09;2.92;;;2.58;;
7823;SDS011;3957;48.61947800;9.05303100;2023-09-07T02:08:11;4.20;;;2.60;;
7823;SDS011;3957;48.61947800;9.05303100;2023-09-07T02:09:13;3.03;;;2.58;;
7823;SDS011;3957;48.61947800;9.05303100;2023-09-07T02:10:14;4.05;;;2.38;;
7823;SDS011;3957;48.61947800;9.05303100;2023-09-07T02:11:16;2.97;;;2.60;;
7823;SDS011;3957;48.61947800;9.05303100;2023-09-07T02:12:18;3.60;;;2.65;;
7823;SDS011;3957;48.61947800;9.05303100;2023-09-07T02:13:19;2.85;;;2.33;;
7823;SDS011;3957;48.61947800;9.05303100;2023-09-07T02:14:21;3.60;;;2.60;;
7823;SDS011;3957;48.61947800;9.05303100;2023-09-07T02:15:23;4.22;;;2.33;;
7823;SDS011;3957;48.61947800;9.05303100;2023-09-07T02:16:25;3.10;;;2.65;;
7823;SDS011;3957;48.61947800;9.05303100;2023-09-07T02:17:26;2.47;;;2.28;;
7823;SDS011;3957;48.61947800;9.05303100;2023-09-07T02:18:28;3.03;;;2.30;;
7823;SDS011;3957;48.61947800;9.05303100;2023-09-07T02:19:30;4.22;;;2.90;;
7823;SDS011;3957;48.61947800;9.05303100;2023-09-07T02:20:32;2.60;;;2.30;;
7823;SDS011;3957;48.61947800;9.05303100;2023-09-07T02:21:34;3.00;;;2.35;;
7823;SDS011;3957;48.61947800;9.05303100;2023-09-07T02:22:36;2.80;;;2.35;;
7823;SDS011;3957;48.61947800;9.05303100;2023-09-07T02:23:38;2.95;;;2.30;;
7823;SDS011;3957;48.61947800;9.05303100;2023-09-07T02:24:40;3.00;;;2.60;;
7823;SDS011;3957;48.61947800;9.05303100;2023-09-07T02:25:41;2.83;;;2.22;;
7823;SDS011;3957;48.61947800;9.05303100;2023-09-07T02:26:43;3.17;;;2.50;;
7823;SDS011;3957;48.61947800;9.05303100;2023-09-07T02:27:47;3.47;;;2.47;;
7823;SDS011;3957;48.61947800;9.05303100;2023-09-07T02:28:49;4.18;;;2.70;;
7823;SDS011;3957;48.61947800;9.05303100;2023-09-07T02:29:50;3.50;;;2.50;;
7823;SDS011;3957;48.61947800;9.05303100;2023-09-07T02:30:52;2.90;;;2.20;;
7823;SDS011;3957;48.61947800;9.05303100;2023-09-07T02:31:54;3.50;;;2.55;;
7823;SDS011;3957;48.61947800;9.05303100;2023-09-07T02:32:56;3.90;;;2.50;;
7823;SDS011;3957;48.61947800;9.05303100;2023-09-07T02:33:59;2.70;;;2.50;;
7823;SDS011;3957;48.61947800;9.05303100;2023-09-07T02:35:01;2.58;;;2.38;;
7823;SDS011;3957;48.61947800;9.05303100;2023-09-07T02:36:03;2.60;;;2.40;;
7823;SDS011;3957;48.61947800;9.05303100;2023-09-07T02:37:05;2.83;;;2.50;;
7823;SDS011;3957;48.61947800;9.05303100;2023-09-07T02:38:06;2.90;;;2.40;;
7823;SDS011;3957;48.61947800;9.05303100;2023-09-07T02:39:08;2.65;;;2.40;;
7823;SDS011;3957;48.61947800;9.05303100;2023-09-07T02:40:09;3.63;;;2.33;;
7823;SDS011;3957;48.61947800;9.05303100;2023-09-07T02:41:12;2.97;;;2.67;;
7823;SDS011;3957;48.61947800;9.05303100;2023-09-07T02:42:13;2.60;;;2.40;;
7823;SDS011;3957;48.61947800;9.05303100;2023-09-07T02:43:15;2.78;;;2.38;;
7823;SDS011;3957;48.61947800;9.05303100;2023-09-07T02:44:17;2.65;;;2.20;;
7823;SDS011;3957;48.61947800;9.05303100;2023-09-07T02:45:19;2.65;;;2.38;;
7823;SDS011;3957;48.61947800;9.05303100;2023-09-07T02:46:21;2.80;;;2.33;;
7823;SDS011;3957;48.61947800;9.05303100;2023-09-07T02:47:23;2.97;;;2.50;;
7823;SDS011;3957;48.61947800;9.05303100;2023-09-07T02:48:24;2.78;;;2.50;;
7823;SDS011;3957;48.61947800;9.05303100;2023-09-07T02:49:26;2.60;;;2.40;;
7823;SDS011;3957;48.61947800;9.05303100;2023-09-07T02:50:29;3.10;;;2.65;;
7823;SDS011;3957;48.61947800;9.05303100;2023-09-07T02:51:33;3.33;;;2.30;;
7823;SDS011;3957;48.61947800;9.05303100;2023-09-07T02:52:35;2.50;;;2.30;;
7823;SDS011;3957;48.61947800;9.05303100;2023-09-07T02:53:36;3.63;;;2.08;;
7823;SDS011;3957;48.61947800;9.05303100;2023-09-07T02:54:38;3.20;;;2.50;;
7823;SDS011;3957;48.61947800;9.05303100;2023-09-07T02:55:39;2.97;;;2.43;;
7823;SDS011;3957;48.61947800;9.05303100;2023-09-07T02:56:41;3.35;;;2.70;;
7823;SDS011;3957;48.61947800;9.05303100;2023-09-07T02:57:43;4.25;;;2.60;;
7823;SDS011;3957;48.61947800;9.05303100;2023-09-07T02:58:44;4.10;;;2.70;;
7823;SDS011;3957;48.61947800;9.05303100;2023-09-07T02:59:46;3.08;;;2.47;;
7823;SDS011;3957;48.61947800;9.05303100;2023-09-07T03:00:48;4.82;;;2.40;;
7823;SDS011;3957;48.61947800;9.05303100;2023-09-07T03:01:53;2.92;;;2.60;;
7823;SDS011;3957;48.61947800;9.05303100;2023-09-07T03:02:55;3.08;;;2.22;;
7823;SDS011;3957;48.61947800;9.05303100;2023-09-07T03:03:56;2.42;;;2.22;;
7823;SDS011;3957;48.61947800;9.05303100;2023-09-07T03:04:58;2.40;;;2.20;;
7823;SDS011;3957;48.61947800;9.05303100;2023-09-07T03:06:07;2.60;;;2.40;;
7823;SDS011;3957;48.61947800;9.05303100;2023-09-07T03:07:10;2.58;;;2.38;;
7823;SDS011;3957;48.61947800;9.05303100;2023-09-07T03:08:11;3.50;;;2.58;;
7823;SDS011;3957;48.61947800;9.05303100;2023-09-07T03:09:13;2.60;;;2.20;;
7823;SDS011;3957;48.61947800;9.05303100;2023-09-07T03:10:15;2.78;;;2.30;;
7823;SDS011;3957;48.61947800;9.05303100;2023-09-07T03:11:17;2.47;;;2.28;;
7823;SDS011;3957;48.61947800;9.05303100;2023-09-07T03:12:22;2.60;;;2.17;;
7823;SDS011;3957;48.61947800;9.05303100;2023-09-07T03:13:24;2.92;;;2.63;;
7823;SDS011;3957;48.61947800;9.05303100;2023-09-07T03:14:26;3.17;;;2.30;;
7823;SDS011;3957;48.61947800;9.05303100;2023-09-07T03:15:27;2.78;;;2.42;;
7823;SDS011;3957;48.61947800;9.05303100;2023-09-07T03:16:29;2.92;;;2.20;;
7823;SDS011;3957;48.61947800;9.05303100;2023-09-07T03:17:31;2.60;;;2.40;;
7823;SDS011;3957;48.61947800;9.05303100;2023-09-07T03:18:33;4.00;;;2.40;;
7823;SDS011;3957;48.61947800;9.05303100;2023-09-07T03:19:35;3.05;;;2.75;;
7823;SDS011;3957;48.61947800;9.05303100;2023-09-07T03:20:38;2.83;;;2.50;;
7823;SDS011;3957;48.61947800;9.05303100;2023-09-07T03:21:40;2.65;;;2.45;;
7823;SDS011;3957;48.61947800;9.05303100;2023-09-07T03:22:42;2.88;;;2.40;;
7823;SDS011;3957;48.61947800;9.05303100;2023-09-07T03:23:45;4.00;;;2.60;;
7823;SDS011;3957;48.61947800;9.05303100;2023-09-07T03:24:51;3.60;;;2.28;;
7823;SDS011;3957;48.61947800;9.05303100;2023-09-07T03:25:53;2.67;;;2.45;;
7823;SDS011;3957;48.61947800;9.05303100;2023-09-07T03:26:55;2.85;;;2.40;;
7823;SDS011;3957;48.61947800;9.05303100;2023-09-07T03:27:57;3.97;;;2.42;;
7823;SDS011;3957;48.61947800;9.05303100;2023-09-07T03:28:59;3.08;;;2.42;;
7823;SDS011;3957;48.61947800;9.05303100;2023-09-07T03:30:00;5.05;;;2.50;;
7823;SDS011;3957;48.61947800;9.05303100;2023-09-07T03:31:02;3.65;;;2.20;;
7823;SDS011;3957;48.61947800;9.05303100;2023-09-07T03:32:04;2.83;;;2.40;;
7823;SDS011;3957;48.61947800;9.05303100;2023-09-07T03:33:06;3.38;;;2.50;;
7823;SDS011;3957;48.61947800;9.05303100;2023-09-07T03:34:08;4.87;;;2.60;;
7823;SDS011;3957;48.61947800;9.05303100;2023-09-07T03:35:09;2.70;;;2.45;;
7823;SDS011;3957;48.61947800;9.05303100;2023-09-07T03:36:12;3.65;;;2.33;;
7823;SDS011;3957;48.61947800;9.05303100;2023-09-07T03:37:16;3.35;;;2.60;;
7823;SDS011;3957;48.61947800;9.05303100;2023-09-07T03:38:17;2.60;;;2.22;;
7823;SDS011;3957;48.61947800;9.05303100;2023-09-07T03:39:20;2.58;;;2.38;;
7823;SDS011;3957;48.61947800;9.05303100;2023-09-07T03:40:24;3.03;;;2.47;;
7823;SDS011;3957;48.61947800;9.05303100;2023-09-07T03:41:26;2.85;;;2.42;;
7823;SDS011;3957;48.61947800;9.05303100;2023-09-07T03:42:32;3.30;;;2.40;;
7823;SDS011;3957;48.61947800;9.05303100;2023-09-07T03:43:35;3.05;;;2.17;;
7823;SDS011;3957;48.61947800;9.05303100;2023-09-07T03:44:37;3.70;;;2.70;;
7823;SDS011;3957;48.61947800;9.05303100;2023-09-07T03:45:40;4.03;;;2.67;;
7823;SDS011;3957;48.61947800;9.05303100;2023-09-07T03:46:42;3.03;;;2.50;;
7823;SDS011;3957;48.61947800;9.05303100;2023-09-07T03:47:44;3.50;;;2.53;;
7823;SDS011;3957;48.61947800;9.05303100;2023-09-07T03:48:47;3.03;;;2.73;;
7823;SDS011;3957;48.61947800;9.05303100;2023-09-07T03:49:49;3.17;;;2.67;;
7823;SDS011;3957;48.61947800;9.05303100;2023-09-07T03:50:50;3.20;;;2.90;;
7823;SDS011;3957;48.61947800;9.05303100;2023-09-07T03:51:52;3.08;;;2.50;;
7823;SDS011;3957;48.61947800;9.05303100;2023-09-07T03:52:53;3.78;;;2.60;;
7823;SDS011;3957;48.61947800;9.05303100;2023-09-07T03:53:56;2.72;;;2.45;;
7823;SDS011;3957;48.61947800;9.05303100;2023-09-07T03:54:58;3.05;;;2.75;;
7823;SDS011;3957;48.61947800;9.05303100;2023-09-07T03:56:01;4.55;;;2.80;;
7823;SDS011;3957;48.61947800;9.05303100;2023-09-07T03:57:05;4.93;;;2.72;;
7823;SDS011;3957;48.61947800;9.05303100;2023-09-07T03:58:06;3.60;;;2.80;;
7823;SDS011;3957;48.61947800;9.05303100;2023-09-07T03:59:09;2.80;;;2.50;;
7823;SDS011;3957;48.61947800;9.05303100;2023-09-07T04:00:12;2.92;;;2.60;;
7823;SDS011;3957;48.61947800;9.05303100;2023-09-07T04:01:18;2.97;;;2.58;;
7823;SDS011;3957;48.61947800;9.05303100;2023-09-07T04:02:20;6.30;;;2.80;;
7823;SDS011;3957;48.61947800;9.05303100;2023-09-07T04:03:22;3.45;;;2.50;;
7823;SDS011;3957;48.61947800;9.05303100;2023-09-07T04:04:24;3.28;;;2.47;;
7823;SDS011;3957;48.61947800;9.05303100;2023-09-07T04:05:26;3.60;;;2.50;;
7823;SDS011;3957;48.61947800;9.05303100;2023-09-07T04:06:27;3.08;;;2.53;;
7823;SDS011;3957;48.61947800;9.05303100;2023-09-07T04:07:30;3.13;;;2.30;;
7823;SDS011;3957;48.61947800;9.05303100;2023-09-07T04:08:31;3.47;;;2.80;;
7823;SDS011;3957;48.61947800;9.05303100;2023-09-07T04:09:33;4.57;;;2.63;;
7823;SDS011;3957;48.61947800;9.05303100;2023-09-07T04:10:36;3.07;;;2.37;;
7823;SDS011;3957;48.61947800;9.05303100;2023-09-07T04:11:39;3.10;;;2.58;;
7823;SDS011;3957;48.61947800;9.05303100;2023-09-07T04:12:40;3.58;;;2.78;;
7823;SDS011;3957;48.61947800;9.05303100;2023-09-07T04:13:43;3.42;;;2.67;;
7823;SDS011;3957;48.61947800;9.05303100;2023-09-07T04:14:44;2.83;;;2.55;;
7823;SDS011;3957;48.61947800;9.05303100;2023-09-07T04:15:46;4.20;;;2.65;;
7823;SDS011;3957;48.61947800;9.05303100;2023-09-07T04:16:50;4.22;;;2.97;;
7823;SDS011;3957;48.61947800;9.05303100;2023-09-07T04:17:52;3.30;;;2.83;;
7823;SDS011;3957;48.61947800;9.05303100;2023-09-07T04:18:56;3.20;;;2.67;;
7823;SDS011;3957;48.61947800;9.05303100;2023-09-07T04:19:58;3.60;;;3.00;;
7823;SDS011;3957;48.61947800;9.05303100;2023-09-07T04:21:04;4.88;;;3.13;;
7823;SDS011;3957;48.61947800;9.05303100;2023-09-07T04:22:12;3.72;;;2.88;;
7823;SDS011;3957;48.61947800;9.05303100;2023-09-07T04:23:14;3.65;;;2.80;;
7823;SDS011;3957;48.61947800;9.05303100;2023-09-07T04:24:15;3.97;;;2.97;;
7823;SDS011;3957;48.61947800;9.05303100;2023-09-07T04:25:17;4.35;;;2.70;;
7823;SDS011;3957;48.61947800;9.05303100;2023-09-07T04:26:19;3.47;;;2.78;;
7823;SDS011;3957;48.61947800;9.05303100;2023-09-07T04:27:20;3.07;;;2.47;;
7823;SDS011;3957;48.61947800;9.05303100;2023-09-07T04:28:22;2.92;;;2.63;;
7823;SDS011;3957;48.61947800;9.05303100;2023-09-07T04:29:24;4.10;;;2.75;;
7823;SDS011;3957;48.61947800;9.05303100;2023-09-07T04:30:25;3.38;;;2.80;;
7823;SDS011;3957;48.61947800;9.05303100;2023-09-07T04:31:28;4.53;;;2.80;;
7823;SDS011;3957;48.61947800;9.05303100;2023-09-07T04:32:29;4.07;;;2.70;;
7823;SDS011;3957;48.61947800;9.05303100;2023-09-07T04:33:34;3.00;;;2.70;;
7823;SDS011;3957;48.61947800;9.05303100;2023-09-07T04:34:36;4.78;;;3.10;;
7823;SDS011;3957;48.61947800;9.05303100;2023-09-07T04:35:38;4.20;;;3.30;;
7823;SDS011;3957;48.61947800;9.05303100;2023-09-07T04:36:40;3.65;;;2.72;;
7823;SDS011;3957;48.61947800;9.05303100;2023-09-07T04:37:42;3.35;;;2.80;;
7823;SDS011;3957;48.61947800;9.05303100;2023-09-07T04:38:47;4.45;;;2.90;;
7823;SDS011;3957;48.61947800;9.05303100;2023-09-07T04:39:52;3.50;;;2.83;;
7823;SDS011;3957;48.61947800;9.05303100;2023-09-07T04:41:04;3.50;;;2.83;;
7823;SDS011;3957;48.61947800;9.05303100;2023-09-07T04:42:07;2.85;;;2.55;;
7823;SDS011;3957;48.61947800;9.05303100;2023-09-07T04:43:10;3.05;;;2.60;;
7823;SDS011;3957;48.61947800;9.05303100;2023-09-07T04:44:11;2.83;;;2.50;;
7823;SDS011;3957;48.61947800;9.05303100;2023-09-07T04:45:13;3.17;;;2.60;;
7823;SDS011;3957;48.61947800;9.05303100;2023-09-07T04:46:15;2.85;;;2.55;;
7823;SDS011;3957;48.61947800;9.05303100;2023-09-07T04:47:17;4.22;;;2.80;;
7823;SDS011;3957;48.61947800;9.05303100;2023-09-07T04:48:19;3.30;;;2.78;;
7823;SDS011;3957;48.61947800;9.05303100;2023-09-07T04:49:21;2.88;;;2.58;;
7823;SDS011;3957;48.61947800;9.05303100;2023-09-07T04:50:23;2.70;;;2.40;;
7823;SDS011;3957;48.61947800;9.05303100;2023-09-07T04:51:24;2.95;;;2.53;;
7823;SDS011;3957;48.61947800;9.05303100;2023-09-07T04:52:27;3.42;;;2.90;;
7823;SDS011;3957;48.61947800;9.05303100;2023-09-07T04:53:30;3.10;;;2.80;;
7823;SDS011;3957;48.61947800;9.05303100;2023-09-07T04:54:37;2.70;;;2.40;;
7823;SDS011;3957;48.61947800;9.05303100;2023-09-07T04:55:39;3.88;;;3.03;;
7823;SDS011;3957;48.61947800;9.05303100;2023-09-07T04:56:41;3.95;;;2.88;;
7823;SDS011;3957;48.61947800;9.05303100;2023-09-07T04:57:42;3.75;;;3.10;;
7823;SDS011;3957;48.61947800;9.05303100;2023-09-07T04:58:44;2.70;;;2.38;;
7823;SDS011;3957;48.61947800;9.05303100;2023-09-07T04:59:45;3.90;;;3.10;;
7823;SDS011;3957;48.61947800;9.05303100;2023-09-07T05:00:47;3.42;;;3.10;;
7823;SDS011;3957;48.61947800;9.05303100;2023-09-07T05:01:49;2.90;;;2.53;;
7823;SDS011;3957;48.61947800;9.05303100;2023-09-07T05:02:51;3.28;;;2.97;;
7823;SDS011;3957;48.61947800;9.05303100;2023-09-07T05:03:52;3.63;;;2.90;;
7823;SDS011;3957;48.61947800;9.05303100;2023-09-07T05:04:56;3.22;;;2.92;;
7823;SDS011;3957;48.61947800;9.05303100;2023-09-07T05:05:59;3.05;;;2.70;;
7823;SDS011;3957;48.61947800;9.05303100;2023-09-07T05:07:01;3.28;;;2.85;;
7823;SDS011;3957;48.61947800;9.05303100;2023-09-07T05:08:02;3.05;;;2.70;;
7823;SDS011;3957;48.61947800;9.05303100;2023-09-07T05:09:06;3.88;;;2.97;;
7823;SDS011;3957;48.61947800;9.05303100;2023-09-07T05:10:07;4.38;;;2.60;;
7823;SDS011;3957;48.61947800;9.05303100;2023-09-07T05:11:09;3.25;;;2.92;;
7823;SDS011;3957;48.61947800;9.05303100;2023-09-07T05:12:11;3.38;;;2.58;;
7823;SDS011;3957;48.61947800;9.05303100;2023-09-07T05:13:13;3.58;;;2.95;;
7823;SDS011;3957;48.61947800;9.05303100;2023-09-07T05:14:14;3.33;;;2.88;;
7823;SDS011;3957;48.61947800;9.05303100;2023-09-07T05:15:16;3.83;;;2.95;;
7823;SDS011;3957;48.61947800;9.05303100;2023-09-07T05:16:18;3.53;;;2.90;;
7823;SDS011;3957;48.61947800;9.05303100;2023-09-07T05:17:20;3.78;;;3.03;;
7823;SDS011;3957;48.61947800;9.05303100;2023-09-07T05:18:21;4.00;;;3.60;;
7823;SDS011;3957;48.61947800;9.05303100;2023-09-07T05:19:23;3.88;;;3.05;;
7823;SDS011;3957;48.61947800;9.05303100;2023-09-07T05:20:25;3.78;;;3.05;;
7823;SDS011;3957;48.61947800;9.05303100;2023-09-07T05:21:27;4.00;;;3.10;;
7823;SDS011;3957;48.61947800;9.05303100;2023-09-07T05:22:29;4.22;;;3.05;;
7823;SDS011;3957;48.61947800;9.05303100;2023-09-07T05:23:31;3.35;;;2.75;;
7823;SDS011;3957;48.61947800;9.05303100;2023-09-07T05:24:32;3.75;;;3.20;;
7823;SDS011;3957;48.61947800;9.05303100;2023-09-07T05:25:42;3.85;;;3.17;;
7823;SDS011;3957;48.61947800;9.05303100;2023-09-07T05:26:44;4.93;;;3.50;;
7823;SDS011;3957;48.61947800;9.05303100;2023-09-07T05:27:45;5.20;;;3.85;;
7823;SDS011;3957;48.61947800;9.05303100;2023-09-07T05:28:47;5.85;;;4.43;;
7823;SDS011;3957;48.61947800;9.05303100;2023-09-07T05:29:48;5.13;;;4.20;;
7823;SDS011;3957;48.61947800;9.05303100;2023-09-07T05:30:50;5.45;;;4.13;;
7823;SDS011;3957;48.61947800;9.05303100;2023-09-07T05:31:55;7.53;;;3.88;;
7823;SDS011;3957;48.61947800;9.05303100;2023-09-07T05:32:56;6.57;;;4.10;;
7823;SDS011;3957;48.61947800;9.05303100;2023-09-07T05:33:59;5.85;;;4.30;;
7823;SDS011;3957;48.61947800;9.05303100;2023-09-07T05:35:02;5.40;;;3.83;;
7823;SDS011;3957;48.61947800;9.05303100;2023-09-07T05:36:03;5.38;;;4.15;;
7823;SDS011;3957;48.61947800;9.05303100;2023-09-07T05:37:05;5.45;;;3.90;;
7823;SDS011;3957;48.61947800;9.05303100;2023-09-07T05:38:06;5.57;;;4.20;;
7823;SDS011;3957;48.61947800;9.05303100;2023-09-07T05:39:08;4.03;;;3.58;;